sensor_id;sensor_type;location;lat;lon;timestamp;P1;durP1;ratioP1;P2;durP2;ratioP2
21611;SDS011;47005;52.292;13.452;2022-07-01T00:01:37;16.77;;;14.40;;
21611;SDS011;47005;52.292;13.452;2022-07-01T00:04:05;16.20;;;13.45;;
21611;SDS011;47005;52.292;13.452;2022-07-01T00:06:32;15.00;;;13.40;;
21611;SDS011;47005;52.292;13.452;2022-07-01T00:08:58;15.45;;;13.85;;
21611;SDS011;47005;52.292;13.452;2022-07-01T00:11:24;15.25;;;13.65;;
21611;SDS011;47005;52.292;13.452;2022-07-01T00:13:49;16.48;;;14.32;;
21611;SDS011;47005;52.292;13.452;2022-07-01T00:16:15;19.85;;;13.73;;
21611;SDS011;47005;52.292;13.452;2022-07-01T00:18:41;15.82;;;13.18;;
21611;SDS011;47005;52.292;13.452;2022-07-01T00:21:07;19.70;;;14.88;;
21611;SDS011;47005;52.292;13.452;2022-07-01T00:23:32;17.42;;;13.27;;
21611;SDS011;47005;52.292;13.452;2022-07-01T00:25:58;17.85;;;14.15;;
21611;SDS011;47005;52.292;13.452;2022-07-01T00:28:24;19.70;;;13.40;;
21611;SDS011;47005;52.292;13.452;2022-07-01T00:30:50;19.25;;;14.50;;
21611;SDS011;47005;52.292;13.452;2022-07-01T00:33:17;16.13;;;14.38;;
21611;SDS011;47005;52.292;13.452;2022-07-01T00:35:43;17.58;;;15.55;;
21611;SDS011;47005;52.292;13.452;2022-07-01T00:38:08;16.67;;;14.45;;
21611;SDS011;47005;52.292;13.452;2022-07-01T00:40:34;16.00;;;13.85;;
21611;SDS011;47005;52.292;13.452;2022-07-01T00:43:00;19.17;;;14.13;;
21611;SDS011;47005;52.292;13.452;2022-07-01T00:45:26;18.92;;;15.32;;
21611;SDS011;47005;52.292;13.452;2022-07-01T00:47:51;17.38;;;15.32;;
21611;SDS011;47005;52.292;13.452;2022-07-01T00:50:17;18.65;;;15.23;;
21611;SDS011;47005;52.292;13.452;2022-07-01T00:52:44;17.80;;;15.07;;
21611;SDS011;47005;52.292;13.452;2022-07-01T00:55:11;16.67;;;14.93;;
21611;SDS011;47005;52.292;13.452;2022-07-01T00:57:38;19.55;;;15.20;;
21611;SDS011;47005;52.292;13.452;2022-07-01T01:00:13;19.05;;;14.85;;
21611;SDS011;47005;52.292;13.452;2022-07-01T01:02:49;19.77;;;15.15;;
21611;SDS011;47005;52.292;13.452;2022-07-01T01:05:15;18.55;;;15.00;;
21611;SDS011;47005;52.292;13.452;2022-07-01T01:07:42;18.05;;;16.17;;
21611;SDS011;47005;52.292;13.452;2022-07-01T01:10:09;20.77;;;15.75;;
21611;SDS011;47005;52.292;13.452;2022-07-01T01:12:34;16.75;;;14.95;;
21611;SDS011;47005;52.292;13.452;2022-07-01T01:15:00;21.23;;;15.20;;
21611;SDS011;47005;52.292;13.452;2022-07-01T01:17:26;21.63;;;15.80;;
21611;SDS011;47005;52.292;13.452;2022-07-01T01:19:52;18.48;;;15.35;;
21611;SDS011;47005;52.292;13.452;2022-07-01T01:22:21;17.90;;;14.88;;
21611;SDS011;47005;52.292;13.452;2022-07-01T01:24:46;17.77;;;15.70;;
21611;SDS011;47005;52.292;13.452;2022-07-01T01:27:12;18.17;;;14.15;;
21611;SDS011;47005;52.292;13.452;2022-07-01T01:29:39;17.98;;;15.43;;
21611;SDS011;47005;52.292;13.452;2022-07-01T01:32:05;21.63;;;16.35;;
21611;SDS011;47005;52.292;13.452;2022-07-01T01:34:32;19.98;;;15.70;;
21611;SDS011;47005;52.292;13.452;2022-07-01T01:36:59;19.88;;;16.08;;
21611;SDS011;47005;52.292;13.452;2022-07-01T01:39:24;18.88;;;16.17;;
21611;SDS011;47005;52.292;13.452;2022-07-01T01:41:50;21.35;;;16.73;;
21611;SDS011;47005;52.292;13.452;2022-07-01T01:44:16;19.48;;;15.80;;
21611;SDS011;47005;52.292;13.452;2022-07-01T01:46:41;22.27;;;17.20;;
21611;SDS011;47005;52.292;13.452;2022-07-01T01:49:07;22.00;;;17.50;;
21611;SDS011;47005;52.292;13.452;2022-07-01T01:51:34;20.48;;;17.27;;
21611;SDS011;47005;52.292;13.452;2022-07-01T01:53:59;20.15;;;16.13;;
21611;SDS011;47005;52.292;13.452;2022-07-01T01:56:26;18.85;;;16.83;;
21611;SDS011;47005;52.292;13.452;2022-07-01T01:58:52;20.75;;;16.63;;
21611;SDS011;47005;52.292;13.452;2022-07-01T02:01:18;19.75;;;16.20;;
21611;SDS011;47005;52.292;13.452;2022-07-01T02:03:45;21.15;;;17.00;;
21611;SDS011;47005;52.292;13.452;2022-07-01T02:06:12;22.63;;;17.90;;
21611;SDS011;47005;52.292;13.452;2022-07-01T02:08:38;26.10;;;18.45;;
21611;SDS011;47005;52.292;13.452;2022-07-01T02:11:05;19.60;;;17.33;;
21611;SDS011;47005;52.292;13.452;2022-07-01T02:13:31;20.08;;;17.95;;
21611;SDS011;47005;52.292;13.452;2022-07-01T02:15:58;20.88;;;17.45;;
21611;SDS011;47005;52.292;13.452;2022-07-01T02:18:24;22.38;;;18.35;;
21611;SDS011;47005;52.292;13.452;2022-07-01T02:20:50;20.80;;;18.35;;
21611;SDS011;47005;52.292;13.452;2022-07-01T02:23:16;21.33;;;18.30;;
21611;SDS011;47005;52.292;13.452;2022-07-01T02:25:42;26.75;;;18.65;;
21611;SDS011;47005;52.292;13.452;2022-07-01T02:28:08;25.48;;;18.02;;
21611;SDS011;47005;52.292;13.452;2022-07-01T02:30:34;21.52;;;18.50;;
21611;SDS011;47005;52.292;13.452;2022-07-01T02:33:01;22.65;;;18.55;;
21611;SDS011;47005;52.292;13.452;2022-07-01T02:35:28;22.10;;;18.15;;
21611;SDS011;47005;52.292;13.452;2022-07-01T02:37:54;23.25;;;18.63;;
21611;SDS011;47005;52.292;13.452;2022-07-01T02:40:20;24.98;;;18.08;;
21611;SDS011;47005;52.292;13.452;2022-07-01T02:42:45;22.02;;;19.27;;
21611;SDS011;47005;52.292;13.452;2022-07-01T02:45:11;21.55;;;19.08;;
21611;SDS011;47005;52.292;13.452;2022-07-01T02:47:38;26.73;;;19.33;;
21611;SDS011;47005;52.292;13.452;2022-07-01T02:50:05;22.55;;;18.88;;
21611;SDS011;47005;52.292;13.452;2022-07-01T02:52:32;22.05;;;18.52;;
21611;SDS011;47005;52.292;13.452;2022-07-01T02:54:59;19.73;;;17.60;;
21611;SDS011;47005;52.292;13.452;2022-07-01T02:57:26;23.73;;;19.55;;
21611;SDS011;47005;52.292;13.452;2022-07-01T02:59:51;20.08;;;17.63;;
21611;SDS011;47005;52.292;13.452;2022-07-01T03:02:18;21.90;;;18.35;;
21611;SDS011;47005;52.292;13.452;2022-07-01T03:04:45;22.10;;;18.85;;
21611;SDS011;47005;52.292;13.452;2022-07-01T03:07:11;23.30;;;19.70;;
21611;SDS011;47005;52.292;13.452;2022-07-01T03:09:37;21.65;;;19.27;;
21611;SDS011;47005;52.292;13.452;2022-07-01T03:12:05;23.05;;;20.55;;
21611;SDS011;47005;52.292;13.452;2022-07-01T03:17:39;23.05;;;18.35;;
21611;SDS011;47005;52.292;13.452;2022-07-01T03:20:06;22.08;;;18.27;;
21611;SDS011;47005;52.292;13.452;2022-07-01T03:22:34;23.40;;;19.98;;
21611;SDS011;47005;52.292;13.452;2022-07-01T03:25:01;24.52;;;20.38;;
21611;SDS011;47005;52.292;13.452;2022-07-01T03:27:28;21.77;;;19.42;;
21611;SDS011;47005;52.292;13.452;2022-07-01T03:29:54;22.20;;;19.42;;
21611;SDS011;47005;52.292;13.452;2022-07-01T03:32:20;23.42;;;20.00;;
21611;SDS011;47005;52.292;13.452;2022-07-01T03:34:46;25.92;;;22.25;;
21611;SDS011;47005;52.292;13.452;2022-07-01T03:37:14;25.25;;;19.77;;
21611;SDS011;47005;52.292;13.452;2022-07-01T03:39:41;27.35;;;21.15;;
21611;SDS011;47005;52.292;13.452;2022-07-01T03:42:07;26.10;;;20.83;;
21611;SDS011;47005;52.292;13.452;2022-07-01T03:44:34;28.10;;;21.52;;
21611;SDS011;47005;52.292;13.452;2022-07-01T03:47:00;23.77;;;20.25;;
21611;SDS011;47005;52.292;13.452;2022-07-01T03:49:27;24.50;;;19.35;;
21611;SDS011;47005;52.292;13.452;2022-07-01T03:51:53;22.35;;;19.48;;
21611;SDS011;47005;52.292;13.452;2022-07-01T03:54:19;25.25;;;20.10;;
21611;SDS011;47005;52.292;13.452;2022-07-01T03:57:07;26.73;;;22.45;;
21611;SDS011;47005;52.292;13.452;2022-07-01T03:59:35;28.10;;;21.77;;
21611;SDS011;47005;52.292;13.452;2022-07-01T04:02:02;26.23;;;21.35;;
21611;SDS011;47005;52.292;13.452;2022-07-01T04:04:29;25.15;;;21.10;;
21611;SDS011;47005;52.292;13.452;2022-07-01T04:06:55;28.10;;;22.20;;
21611;SDS011;47005;52.292;13.452;2022-07-01T04:09:23;27.02;;;21.83;;
21611;SDS011;47005;52.292;13.452;2022-07-01T04:11:49;27.83;;;21.77;;
21611;SDS011;47005;52.292;13.452;2022-07-01T04:14:16;28.02;;;22.58;;
21611;SDS011;47005;52.292;13.452;2022-07-01T04:16:43;25.65;;;21.65;;
21611;SDS011;47005;52.292;13.452;2022-07-01T04:19:09;31.58;;;22.27;;
21611;SDS011;47005;52.292;13.452;2022-07-01T04:21:35;33.35;;;24.27;;
21611;SDS011;47005;52.292;13.452;2022-07-01T04:24:20;28.60;;;21.30;;
21611;SDS011;47005;52.292;13.452;2022-07-01T04:26:49;26.30;;;22.13;;
21611;SDS011;47005;52.292;13.452;2022-07-01T04:29:16;29.65;;;23.13;;
21611;SDS011;47005;52.292;13.452;2022-07-01T04:31:42;31.42;;;23.08;;
21611;SDS011;47005;52.292;13.452;2022-07-01T04:34:08;26.08;;;23.27;;
21611;SDS011;47005;52.292;13.452;2022-07-01T04:36:35;25.95;;;22.80;;
21611;SDS011;47005;52.292;13.452;2022-07-01T04:39:01;29.65;;;23.80;;
21611;SDS011;47005;52.292;13.452;2022-07-01T04:41:28;27.75;;;21.77;;
21611;SDS011;47005;52.292;13.452;2022-07-01T04:44:12;27.25;;;22.88;;
21611;SDS011;47005;52.292;13.452;2022-07-01T04:46:38;30.27;;;22.95;;
21611;SDS011;47005;52.292;13.452;2022-07-01T04:49:03;26.33;;;22.88;;
21611;SDS011;47005;52.292;13.452;2022-07-01T04:51:29;30.08;;;23.50;;
21611;SDS011;47005;52.292;13.452;2022-07-01T04:53:56;34.95;;;26.13;;
21611;SDS011;47005;52.292;13.452;2022-07-01T04:56:21;30.38;;;25.40;;
21611;SDS011;47005;52.292;13.452;2022-07-01T04:58:47;30.27;;;24.95;;
21611;SDS011;47005;52.292;13.452;2022-07-01T05:01:13;26.80;;;23.77;;
21611;SDS011;47005;52.292;13.452;2022-07-01T05:03:39;32.47;;;26.02;;
21611;SDS011;47005;52.292;13.452;2022-07-01T05:06:04;26.85;;;23.88;;
21611;SDS011;47005;52.292;13.452;2022-07-01T05:08:30;27.15;;;24.15;;
21611;SDS011;47005;52.292;13.452;2022-07-01T05:10:56;27.35;;;23.33;;
21611;SDS011;47005;52.292;13.452;2022-07-01T05:13:22;25.55;;;22.27;;
21611;SDS011;47005;52.292;13.452;2022-07-01T05:15:48;26.98;;;23.20;;
21611;SDS011;47005;52.292;13.452;2022-07-01T05:18:13;25.60;;;22.63;;
21611;SDS011;47005;52.292;13.452;2022-07-01T05:20:58;29.67;;;22.45;;
21611;SDS011;47005;52.292;13.452;2022-07-01T05:23:42;27.77;;;23.33;;
21611;SDS011;47005;52.292;13.452;2022-07-01T05:26:07;26.52;;;21.77;;
21611;SDS011;47005;52.292;13.452;2022-07-01T05:28:33;24.35;;;21.80;;
21611;SDS011;47005;52.292;13.452;2022-07-01T05:30:58;26.20;;;21.83;;
21611;SDS011;47005;52.292;13.452;2022-07-01T05:33:24;26.77;;;22.38;;
21611;SDS011;47005;52.292;13.452;2022-07-01T05:35:51;23.58;;;21.00;;
21611;SDS011;47005;52.292;13.452;2022-07-01T05:38:17;28.65;;;22.50;;
21611;SDS011;47005;52.292;13.452;2022-07-01T05:40:43;24.55;;;21.88;;
21611;SDS011;47005;52.292;13.452;2022-07-01T05:43:09;26.10;;;21.75;;
21611;SDS011;47005;52.292;13.452;2022-07-01T05:45:34;25.17;;;20.92;;
21611;SDS011;47005;52.292;13.452;2022-07-01T05:48:00;25.67;;;21.10;;
21611;SDS011;47005;52.292;13.452;2022-07-01T05:50:26;24.42;;;21.25;;
21611;SDS011;47005;52.292;13.452;2022-07-01T05:52:51;26.13;;;22.17;;
21611;SDS011;47005;52.292;13.452;2022-07-01T05:55:17;27.65;;;20.85;;
21611;SDS011;47005;52.292;13.452;2022-07-01T05:57:42;26.30;;;22.08;;
21611;SDS011;47005;52.292;13.452;2022-07-01T06:00:08;26.73;;;20.70;;
21611;SDS011;47005;52.292;13.452;2022-07-01T06:02:34;23.98;;;20.58;;
21611;SDS011;47005;52.292;13.452;2022-07-01T06:05:00;25.70;;;21.85;;
21611;SDS011;47005;52.292;13.452;2022-07-01T06:07:27;23.05;;;20.58;;
21611;SDS011;47005;52.292;13.452;2022-07-01T06:09:53;24.90;;;20.95;;
21611;SDS011;47005;52.292;13.452;2022-07-01T06:12:19;23.75;;;20.02;;
21611;SDS011;47005;52.292;13.452;2022-07-01T06:14:45;24.73;;;22.05;;
21611;SDS011;47005;52.292;13.452;2022-07-01T06:17:10;26.23;;;21.30;;
21611;SDS011;47005;52.292;13.452;2022-07-01T06:19:38;25.98;;;23.20;;
21611;SDS011;47005;52.292;13.452;2022-07-01T06:22:04;28.60;;;22.52;;
21611;SDS011;47005;52.292;13.452;2022-07-01T06:24:30;28.88;;;21.58;;
21611;SDS011;47005;52.292;13.452;2022-07-01T06:26:56;24.15;;;20.02;;
21611;SDS011;47005;52.292;13.452;2022-07-01T06:29:21;28.58;;;21.25;;
21611;SDS011;47005;52.292;13.452;2022-07-01T06:31:47;25.70;;;20.85;;
21611;SDS011;47005;52.292;13.452;2022-07-01T06:34:12;22.92;;;20.48;;
21611;SDS011;47005;52.292;13.452;2022-07-01T06:36:38;24.58;;;20.67;;
21611;SDS011;47005;52.292;13.452;2022-07-01T06:39:04;24.25;;;20.88;;
21611;SDS011;47005;52.292;13.452;2022-07-01T06:41:29;25.60;;;20.02;;
21611;SDS011;47005;52.292;13.452;2022-07-01T06:43:59;24.50;;;21.95;;
21611;SDS011;47005;52.292;13.452;2022-07-01T06:46:26;24.17;;;21.45;;
21611;SDS011;47005;52.292;13.452;2022-07-01T06:48:52;31.27;;;21.27;;
21611;SDS011;47005;52.292;13.452;2022-07-01T06:51:18;24.17;;;20.50;;
21611;SDS011;47005;52.292;13.452;2022-07-01T06:53:44;24.40;;;20.55;;
21611;SDS011;47005;52.292;13.452;2022-07-01T06:56:11;23.25;;;20.25;;
21611;SDS011;47005;52.292;13.452;2022-07-01T06:58:38;24.20;;;21.00;;
21611;SDS011;47005;52.292;13.452;2022-07-01T07:01:04;23.42;;;20.55;;
21611;SDS011;47005;52.292;13.452;2022-07-01T07:03:30;23.30;;;19.55;;
21611;SDS011;47005;52.292;13.452;2022-07-01T07:05:59;24.17;;;20.83;;
21611;SDS011;47005;52.292;13.452;2022-07-01T07:08:25;22.48;;;19.30;;
21611;SDS011;47005;52.292;13.452;2022-07-01T07:10:52;29.50;;;20.60;;
21611;SDS011;47005;52.292;13.452;2022-07-01T07:13:17;24.67;;;19.35;;
21611;SDS011;47005;52.292;13.452;2022-07-01T07:15:43;23.52;;;20.00;;
21611;SDS011;47005;52.292;13.452;2022-07-01T07:18:09;24.30;;;21.20;;
21611;SDS011;47005;52.292;13.452;2022-07-01T07:20:34;21.90;;;19.17;;
21611;SDS011;47005;52.292;13.452;2022-07-01T07:23:00;20.95;;;18.70;;
21611;SDS011;47005;52.292;13.452;2022-07-01T07:25:26;21.27;;;18.02;;
21611;SDS011;47005;52.292;13.452;2022-07-01T07:27:52;20.98;;;17.67;;
21611;SDS011;47005;52.292;13.452;2022-07-01T07:30:18;21.85;;;17.23;;
21611;SDS011;47005;52.292;13.452;2022-07-01T07:32:44;19.77;;;17.73;;
21611;SDS011;47005;52.292;13.452;2022-07-01T07:35:10;26.23;;;18.55;;
21611;SDS011;47005;52.292;13.452;2022-07-01T07:37:36;22.65;;;17.25;;
21611;SDS011;47005;52.292;13.452;2022-07-01T07:40:02;20.20;;;18.05;;
21611;SDS011;47005;52.292;13.452;2022-07-01T07:42:31;20.80;;;16.52;;
21611;SDS011;47005;52.292;13.452;2022-07-01T07:44:57;20.42;;;16.33;;
21611;SDS011;47005;52.292;13.452;2022-07-01T07:47:23;20.40;;;16.75;;
21611;SDS011;47005;52.292;13.452;2022-07-01T07:49:48;23.30;;;16.60;;
21611;SDS011;47005;52.292;13.452;2022-07-01T07:52:14;18.75;;;16.75;;
21611;SDS011;47005;52.292;13.452;2022-07-01T07:54:40;20.80;;;17.10;;
21611;SDS011;47005;52.292;13.452;2022-07-01T07:57:05;20.58;;;16.98;;
21611;SDS011;47005;52.292;13.452;2022-07-01T07:59:32;18.08;;;15.82;;
21611;SDS011;47005;52.292;13.452;2022-07-01T08:01:58;19.15;;;16.65;;
21611;SDS011;47005;52.292;13.452;2022-07-01T08:04:24;18.52;;;16.35;;
21611;SDS011;47005;52.292;13.452;2022-07-01T08:06:50;21.02;;;16.67;;
21611;SDS011;47005;52.292;13.452;2022-07-01T08:09:15;21.17;;;16.95;;
21611;SDS011;47005;52.292;13.452;2022-07-01T08:11:41;20.40;;;16.95;;
21611;SDS011;47005;52.292;13.452;2022-07-01T08:14:06;24.00;;;16.38;;
21611;SDS011;47005;52.292;13.452;2022-07-01T08:16:32;16.05;;;14.32;;
21611;SDS011;47005;52.292;13.452;2022-07-01T08:18:58;16.02;;;13.65;;
21611;SDS011;47005;52.292;13.452;2022-07-01T08:21:23;13.05;;;11.70;;
21611;SDS011;47005;52.292;13.452;2022-07-01T08:23:49;15.30;;;12.63;;
21611;SDS011;47005;52.292;13.452;2022-07-01T08:26:15;13.73;;;12.20;;
21611;SDS011;47005;52.292;13.452;2022-07-01T08:28:42;14.13;;;11.40;;
21611;SDS011;47005;52.292;13.452;2022-07-01T08:31:08;14.32;;;11.25;;
21611;SDS011;47005;52.292;13.452;2022-07-01T08:33:33;11.77;;;10.55;;
21611;SDS011;47005;52.292;13.452;2022-07-01T08:35:59;15.27;;;11.65;;
21611;SDS011;47005;52.292;13.452;2022-07-01T08:38:25;14.07;;;12.05;;
21611;SDS011;47005;52.292;13.452;2022-07-01T08:40:50;12.50;;;11.20;;
21611;SDS011;47005;52.292;13.452;2022-07-01T08:43:16;11.82;;;10.57;;
21611;SDS011;47005;52.292;13.452;2022-07-01T08:45:41;13.40;;;11.75;;
21611;SDS011;47005;52.292;13.452;2022-07-01T08:48:10;13.82;;;11.20;;
21611;SDS011;47005;52.292;13.452;2022-07-01T08:50:37;12.43;;;10.93;;
21611;SDS011;47005;52.292;13.452;2022-07-01T08:53:04;12.38;;;10.13;;
21611;SDS011;47005;52.292;13.452;2022-07-01T08:55:32;16.77;;;11.18;;
21611;SDS011;47005;52.292;13.452;2022-07-01T08:57:58;12.10;;;10.70;;
21611;SDS011;47005;52.292;13.452;2022-07-01T09:00:30;13.35;;;11.43;;
21611;SDS011;47005;52.292;13.452;2022-07-01T09:02:57;15.43;;;10.75;;
21611;SDS011;47005;52.292;13.452;2022-07-01T09:05:24;12.40;;;11.10;;
21611;SDS011;47005;52.292;13.452;2022-07-01T09:07:58;11.30;;;9.88;;
21611;SDS011;47005;52.292;13.452;2022-07-01T09:10:28;11.65;;;10.35;;
21611;SDS011;47005;52.292;13.452;2022-07-01T09:13:10;13.93;;;10.13;;
21611;SDS011;47005;52.292;13.452;2022-07-01T09:15:37;10.18;;;8.88;;
21611;SDS011;47005;52.292;13.452;2022-07-01T09:18:11;7.57;;;6.68;;
21611;SDS011;47005;52.292;13.452;2022-07-01T09:20:42;6.22;;;4.55;;
21611;SDS011;47005;52.292;13.452;2022-07-01T09:23:10;5.90;;;4.28;;
21611;SDS011;47005;52.292;13.452;2022-07-01T09:25:55;4.32;;;3.60;;
21611;SDS011;47005;52.292;13.452;2022-07-01T09:28:21;6.40;;;3.58;;
21611;SDS011;47005;52.292;13.452;2022-07-01T09:30:55;6.07;;;3.15;;
21611;SDS011;47005;52.292;13.452;2022-07-01T09:33:23;5.35;;;3.40;;
21611;SDS011;47005;52.292;13.452;2022-07-01T09:35:51;8.73;;;3.17;;
21611;SDS011;47005;52.292;13.452;2022-07-01T09:38:18;4.47;;;2.63;;
21611;SDS011;47005;52.292;13.452;2022-07-01T09:40:49;4.63;;;2.78;;
21611;SDS011;47005;52.292;13.452;2022-07-01T09:48:20;5.82;;;3.45;;
21611;SDS011;47005;52.292;13.452;2022-07-01T09:50:47;5.13;;;3.33;;
21611;SDS011;47005;52.292;13.452;2022-07-01T09:53:13;5.47;;;3.40;;
21611;SDS011;47005;52.292;13.452;2022-07-01T09:55:39;4.50;;;3.42;;
21611;SDS011;47005;52.292;13.452;2022-07-01T09:58:05;3.75;;;3.08;;
21611;SDS011;47005;52.292;13.452;2022-07-01T10:00:31;4.65;;;3.20;;
21611;SDS011;47005;52.292;13.452;2022-07-01T10:02:57;5.40;;;3.42;;
21611;SDS011;47005;52.292;13.452;2022-07-01T10:05:25;5.85;;;4.32;;
21611;SDS011;47005;52.292;13.452;2022-07-01T10:08:12;5.82;;;4.18;;
21611;SDS011;47005;52.292;13.452;2022-07-01T10:11:06;5.43;;;3.25;;
21611;SDS011;47005;52.292;13.452;2022-07-01T10:14:06;4.32;;;2.97;;
21611;SDS011;47005;52.292;13.452;2022-07-01T10:16:33;4.05;;;2.50;;
21611;SDS011;47005;52.292;13.452;2022-07-01T10:21:45;2.83;;;2.08;;
21611;SDS011;47005;52.292;13.452;2022-07-01T10:26:37;3.00;;;1.70;;
21611;SDS011;47005;52.292;13.452;2022-07-01T10:29:03;2.50;;;1.50;;
21611;SDS011;47005;52.292;13.452;2022-07-01T10:31:37;1.67;;;1.15;;
21611;SDS011;47005;52.292;13.452;2022-07-01T10:34:04;1.48;;;1.10;;
21611;SDS011;47005;52.292;13.452;2022-07-01T10:41:25;0.90;;;0.80;;
21611;SDS011;47005;52.292;13.452;2022-07-01T10:43:56;1.50;;;0.88;;
21611;SDS011;47005;52.292;13.452;2022-07-01T10:49:10;1.33;;;0.88;;
21611;SDS011;47005;52.292;13.452;2022-07-01T10:59:42;3.33;;;1.00;;
21611;SDS011;47005;52.292;13.452;2022-07-01T11:02:12;1.25;;;1.05;;
21611;SDS011;47005;52.292;13.452;2022-07-01T11:04:40;0.77;;;0.60;;
21611;SDS011;47005;52.292;13.452;2022-07-01T11:07:06;0.68;;;0.68;;
21611;SDS011;47005;52.292;13.452;2022-07-01T11:09:31;1.58;;;0.80;;
21611;SDS011;47005;52.292;13.452;2022-07-01T11:11:57;3.15;;;0.80;;
21611;SDS011;47005;52.292;13.452;2022-07-01T11:14:22;1.33;;;0.90;;
21611;SDS011;47005;52.292;13.452;2022-07-01T11:16:48;2.30;;;1.10;;
21611;SDS011;47005;52.292;13.452;2022-07-01T11:19:18;1.80;;;0.90;;
21611;SDS011;47005;52.292;13.452;2022-07-01T11:21:50;1.45;;;1.05;;
21611;SDS011;47005;52.292;13.452;2022-07-01T11:24:17;0.85;;;0.80;;
21611;SDS011;47005;52.292;13.452;2022-07-01T11:26:43;4.22;;;1.00;;
21611;SDS011;47005;52.292;13.452;2022-07-01T11:29:12;1.60;;;1.10;;
21611;SDS011;47005;52.292;13.452;2022-07-01T11:31:38;2.40;;;1.13;;
21611;SDS011;47005;52.292;13.452;2022-07-01T11:34:04;1.55;;;1.10;;
21611;SDS011;47005;52.292;13.452;2022-07-01T11:36:31;1.85;;;1.00;;
21611;SDS011;47005;52.292;13.452;2022-07-01T11:39:19;2.05;;;0.90;;
21611;SDS011;47005;52.292;13.452;2022-07-01T11:41:51;1.48;;;0.82;;
21611;SDS011;47005;52.292;13.452;2022-07-01T11:44:57;3.88;;;1.30;;
21611;SDS011;47005;52.292;13.452;2022-07-01T11:47:23;1.60;;;1.17;;
21611;SDS011;47005;52.292;13.452;2022-07-01T11:49:51;1.10;;;1.00;;
21611;SDS011;47005;52.292;13.452;2022-07-01T11:52:17;2.85;;;1.30;;
21611;SDS011;47005;52.292;13.452;2022-07-01T11:54:44;3.83;;;1.45;;
21611;SDS011;47005;52.292;13.452;2022-07-01T11:59:39;1.98;;;1.35;;
21611;SDS011;47005;52.292;13.452;2022-07-01T12:02:06;1.67;;;1.02;;
21611;SDS011;47005;52.292;13.452;2022-07-01T12:04:33;2.58;;;1.75;;
21611;SDS011;47005;52.292;13.452;2022-07-01T12:06:59;3.90;;;2.03;;
21611;SDS011;47005;52.292;13.452;2022-07-01T12:09:25;3.25;;;1.70;;
21611;SDS011;47005;52.292;13.452;2022-07-01T12:11:52;4.78;;;1.88;;
21611;SDS011;47005;52.292;13.452;2022-07-01T12:16:50;3.90;;;1.80;;
21611;SDS011;47005;52.292;13.452;2022-07-01T12:19:17;2.25;;;1.50;;
21611;SDS011;47005;52.292;13.452;2022-07-01T12:21:47;2.00;;;1.40;;
21611;SDS011;47005;52.292;13.452;2022-07-01T12:24:18;4.35;;;1.65;;
21611;SDS011;47005;52.292;13.452;2022-07-01T12:26:47;4.88;;;1.85;;
21611;SDS011;47005;52.292;13.452;2022-07-01T12:29:15;3.80;;;1.70;;
21611;SDS011;47005;52.292;13.452;2022-07-01T12:31:42;1.60;;;1.13;;
21611;SDS011;47005;52.292;13.452;2022-07-01T12:34:08;2.20;;;1.45;;
21611;SDS011;47005;52.292;13.452;2022-07-01T12:36:34;2.45;;;1.63;;
21611;SDS011;47005;52.292;13.452;2022-07-01T12:39:08;1.95;;;1.35;;
21611;SDS011;47005;52.292;13.452;2022-07-01T12:41:35;2.00;;;1.45;;
21611;SDS011;47005;52.292;13.452;2022-07-01T12:44:20;2.55;;;1.80;;
21611;SDS011;47005;52.292;13.452;2022-07-01T12:46:50;3.20;;;1.65;;
21611;SDS011;47005;52.292;13.452;2022-07-01T12:49:23;6.53;;;1.88;;
21611;SDS011;47005;52.292;13.452;2022-07-01T12:51:51;2.88;;;1.92;;
21611;SDS011;47005;52.292;13.452;2022-07-01T12:54:33;3.80;;;1.70;;
21611;SDS011;47005;52.292;13.452;2022-07-01T12:57:01;2.53;;;2.05;;
21611;SDS011;47005;52.292;13.452;2022-07-01T12:59:27;2.33;;;1.85;;
21611;SDS011;47005;52.292;13.452;2022-07-01T13:01:53;2.47;;;1.80;;
21611;SDS011;47005;52.292;13.452;2022-07-01T13:04:26;2.40;;;1.95;;
21611;SDS011;47005;52.292;13.452;2022-07-01T13:06:52;2.85;;;1.70;;
21611;SDS011;47005;52.292;13.452;2022-07-01T13:09:18;2.90;;;1.80;;
21611;SDS011;47005;52.292;13.452;2022-07-01T13:11:44;2.00;;;1.55;;
21611;SDS011;47005;52.292;13.452;2022-07-01T13:14:10;2.38;;;1.77;;
21611;SDS011;47005;52.292;13.452;2022-07-01T13:16:36;3.28;;;2.00;;
21611;SDS011;47005;52.292;13.452;2022-07-01T13:19:02;2.55;;;1.65;;
21611;SDS011;47005;52.292;13.452;2022-07-01T13:21:28;1.95;;;1.38;;
21611;SDS011;47005;52.292;13.452;2022-07-01T13:23:54;2.40;;;1.90;;
21611;SDS011;47005;52.292;13.452;2022-07-01T13:26:20;2.63;;;1.92;;
21611;SDS011;47005;52.292;13.452;2022-07-01T13:28:46;3.78;;;1.60;;
21611;SDS011;47005;52.292;13.452;2022-07-01T13:31:12;2.17;;;1.65;;
21611;SDS011;47005;52.292;13.452;2022-07-01T13:33:38;3.30;;;1.60;;
21611;SDS011;47005;52.292;13.452;2022-07-01T13:36:04;2.88;;;1.58;;
21611;SDS011;47005;52.292;13.452;2022-07-01T13:38:30;3.35;;;1.70;;
21611;SDS011;47005;52.292;13.452;2022-07-01T13:40:56;4.63;;;1.52;;
21611;SDS011;47005;52.292;13.452;2022-07-01T13:43:21;1.90;;;1.60;;
21611;SDS011;47005;52.292;13.452;2022-07-01T13:45:47;5.28;;;1.75;;
21611;SDS011;47005;52.292;13.452;2022-07-01T13:48:12;2.35;;;1.60;;
21611;SDS011;47005;52.292;13.452;2022-07-01T13:50:38;3.25;;;1.75;;
21611;SDS011;47005;52.292;13.452;2022-07-01T13:53:04;2.50;;;1.70;;
21611;SDS011;47005;52.292;13.452;2022-07-01T13:55:29;4.63;;;1.35;;
21611;SDS011;47005;52.292;13.452;2022-07-01T13:57:55;3.08;;;1.70;;
21611;SDS011;47005;52.292;13.452;2022-07-01T14:00:21;2.67;;;1.58;;
21611;SDS011;47005;52.292;13.452;2022-07-01T14:02:46;2.05;;;1.35;;
21611;SDS011;47005;52.292;13.452;2022-07-01T14:05:12;1.88;;;1.30;;
21611;SDS011;47005;52.292;13.452;2022-07-01T14:07:38;2.25;;;1.67;;
21611;SDS011;47005;52.292;13.452;2022-07-01T14:10:04;1.90;;;1.40;;
21611;SDS011;47005;52.292;13.452;2022-07-01T14:12:30;3.40;;;1.67;;
21611;SDS011;47005;52.292;13.452;2022-07-01T14:14:56;2.80;;;1.70;;
21611;SDS011;47005;52.292;13.452;2022-07-01T14:17:22;2.78;;;1.90;;
21611;SDS011;47005;52.292;13.452;2022-07-01T14:19:48;2.58;;;1.70;;
21611;SDS011;47005;52.292;13.452;2022-07-01T14:22:14;2.80;;;1.50;;
21611;SDS011;47005;52.292;13.452;2022-07-01T14:24:40;2.30;;;1.65;;
21611;SDS011;47005;52.292;13.452;2022-07-01T14:27:05;2.08;;;1.60;;
21611;SDS011;47005;52.292;13.452;2022-07-01T14:29:31;4.80;;;2.38;;
21611;SDS011;47005;52.292;13.452;2022-07-01T14:31:57;3.28;;;2.13;;
21611;SDS011;47005;52.292;13.452;2022-07-01T14:34:24;2.13;;;1.65;;
21611;SDS011;47005;52.292;13.452;2022-07-01T14:36:50;2.38;;;1.73;;
21611;SDS011;47005;52.292;13.452;2022-07-01T14:39:16;2.55;;;1.77;;
21611;SDS011;47005;52.292;13.452;2022-07-01T14:41:41;3.63;;;2.25;;
21611;SDS011;47005;52.292;13.452;2022-07-01T14:44:07;2.35;;;1.70;;
21611;SDS011;47005;52.292;13.452;2022-07-01T14:46:33;3.35;;;2.38;;
21611;SDS011;47005;52.292;13.452;2022-07-01T14:48:59;4.75;;;2.00;;
21611;SDS011;47005;52.292;13.452;2022-07-01T14:51:24;3.42;;;2.40;;
21611;SDS011;47005;52.292;13.452;2022-07-01T14:53:51;3.88;;;2.80;;